createdAt,value
2024-04-25T00:00:03.881Z,12
2024-04-25T00:02:03.801Z,10
2024-04-25T00:03:03.378Z,11
2024-04-25T00:04:04.145Z,12
2024-04-25T00:05:04.686Z,11
2024-04-25T00:07:03.601Z,12
2024-04-25T00:08:05.158Z,12
2024-04-25T00:10:03.834Z,12
2024-04-25T00:11:04.060Z,14
2024-04-25T00:12:03.484Z,13
2024-04-25T00:13:03.331Z,13
2024-04-25T00:14:03.842Z,12
2024-04-25T00:16:03.116Z,13
2024-04-25T00:17:04.330Z,14
2024-04-25T00:18:03.524Z,13
2024-04-25T00:19:03.524Z,12
2024-04-25T00:20:04.434Z,13
2024-04-25T00:22:03.225Z,14
2024-04-25T00:23:03.533Z,12
2024-04-25T00:24:03.603Z,12
2024-04-25T00:25:03.903Z,14
2024-04-25T00:26:03.956Z,13
2024-04-25T00:28:03.477Z,13
2024-04-25T00:29:04.041Z,13
2024-04-25T00:30:04.363Z,13
2024-04-25T00:32:03.974Z,13
2024-04-25T00:33:04.360Z,12
2024-04-25T00:34:04.155Z,13
2024-04-25T00:35:04.505Z,13
2024-04-25T00:38:03.815Z,13
2024-04-25T00:39:03.672Z,13
2024-04-25T00:40:04.445Z,15
2024-04-25T00:42:03.772Z,14
2024-04-25T00:43:03.798Z,14
2024-04-25T00:45:04.495Z,14
2024-04-25T00:47:04.226Z,14
2024-04-25T00:48:04.784Z,15
2024-04-25T00:49:03.783Z,14
2024-04-25T00:50:04.828Z,14
2024-04-25T00:52:03.982Z,14
2024-04-25T00:53:03.925Z,14
2024-04-25T00:55:04.438Z,15
2024-04-25T00:57:03.127Z,14
2024-04-25T00:58:03.019Z,14
2024-04-25T00:59:03.498Z,14
2024-04-25T01:00:03.820Z,13
2024-04-25T01:01:03.232Z,13
2024-04-25T01:02:03.847Z,15
2024-04-25T01:03:03.077Z,14
2024-04-25T01:04:03.871Z,14
2024-04-25T01:05:05.109Z,13
2024-04-25T01:07:03.185Z,14
2024-04-25T01:08:03.980Z,13
2024-04-25T01:10:04.256Z,13
2024-04-25T01:11:03.834Z,13
2024-04-25T01:13:03.618Z,13
2024-04-25T01:14:03.221Z,13
2024-04-25T01:15:04.294Z,15
2024-04-25T01:17:03.202Z,14
2024-04-25T01:18:03.615Z,13
2024-04-25T01:19:03.500Z,12
2024-04-25T01:20:04.395Z,13
2024-04-25T01:22:03.520Z,12
2024-04-25T01:23:03.404Z,13
2024-04-25T01:24:03.668Z,13
2024-04-25T01:25:04.339Z,13
2024-04-25T01:27:03.586Z,13
2024-04-25T01:28:03.578Z,13
2024-04-25T01:29:03.706Z,12
2024-04-25T01:30:04.551Z,11
2024-04-25T01:32:04.136Z,13
2024-04-25T01:33:04.419Z,12
2024-04-25T01:34:05.129Z,13
2024-04-25T01:36:03.808Z,12
2024-04-25T01:37:03.831Z,11
2024-04-25T01:38:04.579Z,10
2024-04-25T01:39:04.060Z,11
2024-04-25T01:40:05.257Z,12
2024-04-25T01:42:03.768Z,11
2024-04-25T01:43:04.079Z,10
2024-04-25T01:44:03.639Z,11
2024-04-25T01:45:04.456Z,9
2024-04-25T01:47:03.803Z,10
2024-04-25T01:48:04.739Z,10
2024-04-25T01:49:03.877Z,10
2024-04-25T01:50:04.976Z,10
2024-04-25T01:52:04.054Z,12
2024-04-25T01:53:03.235Z,12
2024-04-25T01:54:03.979Z,10
2024-04-25T01:55:04.723Z,10
2024-04-25T01:57:04.005Z,13
2024-04-25T01:58:04.020Z,12
2024-04-25T01:59:04.758Z,11
2024-04-25T02:00:04.967Z,12
2024-04-25T02:02:03.354Z,11
2024-04-25T02:03:03.873Z,11
2024-04-25T02:05:04.064Z,13
2024-04-25T02:07:03.393Z,10
2024-04-25T02:08:03.693Z,12
2024-04-25T02:09:03.018Z,12
2024-04-25T02:10:04.104Z,12
2024-04-25T02:12:03.958Z,12
2024-04-25T02:13:02.922Z,12
2024-04-25T02:14:03.054Z,11
2024-04-25T02:15:03.750Z,10
2024-04-25T02:16:03.222Z,12
2024-04-25T02:17:03.144Z,11
2024-04-25T02:18:04.638Z,11
2024-04-25T02:19:03.744Z,11
2024-04-25T02:20:04.337Z,10
2024-04-25T02:22:03.191Z,10
2024-04-25T02:23:03.444Z,11
2024-04-25T02:24:03.276Z,12
2024-04-25T02:25:04.022Z,11
2024-04-25T02:28:03.205Z,10
2024-04-25T02:29:03.323Z,9
2024-04-25T02:30:04.608Z,15
2024-04-25T02:32:03.292Z,11
2024-04-25T02:33:04.211Z,10
2024-04-25T02:34:03.423Z,11
2024-04-25T02:35:04.702Z,10
2024-04-25T02:37:03.545Z,12
2024-04-25T02:38:03.421Z,10
2024-04-25T02:40:04.273Z,12
2024-04-25T02:42:03.724Z,11
2024-04-25T02:43:03.444Z,12
2024-04-25T02:44:03.699Z,12
2024-04-25T02:45:04.324Z,12
2024-04-25T02:47:03.557Z,11
2024-04-25T02:48:04.854Z,11
2024-04-25T02:49:03.892Z,11
2024-04-25T02:50:04.341Z,11
2024-04-25T02:52:03.384Z,11
2024-04-25T02:53:03.339Z,11
2024-04-25T02:54:03.233Z,11
2024-04-25T02:55:04.950Z,10
2024-04-25T02:57:03.664Z,12
2024-04-25T02:58:03.584Z,13
2024-04-25T02:59:03.765Z,12
2024-04-25T03:00:04.582Z,11
2024-04-25T03:02:03.697Z,10
2024-04-25T03:03:04.422Z,12
2024-04-25T03:05:05.397Z,12
2024-04-25T03:07:03.316Z,13
2024-04-25T03:08:03.458Z,12
2024-04-25T03:09:03.934Z,13
2024-04-25T03:10:04.749Z,13
2024-04-25T03:12:03.609Z,12
2024-04-25T03:13:03.643Z,11
2024-04-25T03:15:03.975Z,13
2024-04-25T03:17:03.344Z,13
2024-04-25T03:18:03.720Z,13
2024-04-25T03:19:04.215Z,12
2024-04-25T03:22:03.072Z,12
2024-04-25T03:23:03.355Z,12
2024-04-25T03:24:02.904Z,12
2024-04-25T03:25:10.314Z,12
2024-04-25T03:27:03.096Z,12
2024-04-25T03:28:03.085Z,12
2024-04-25T03:29:03.097Z,11
2024-04-25T03:30:03.863Z,12
2024-04-25T03:31:03.687Z,11
2024-04-25T03:32:03.451Z,11
2024-04-25T03:33:04.067Z,11
2024-04-25T03:34:03.173Z,10
2024-04-25T03:35:04.462Z,11
2024-04-25T03:37:03.151Z,12
2024-04-25T03:38:06.742Z,12
2024-04-25T03:40:04.480Z,13
2024-04-25T03:42:03.467Z,12
2024-04-25T03:43:03.294Z,12
2024-04-25T03:44:03.387Z,12
2024-04-25T03:45:04.160Z,13
2024-04-25T03:47:03.595Z,12
2024-04-25T03:48:04.170Z,11
2024-04-25T03:50:04.140Z,11
2024-04-25T03:52:03.626Z,11
2024-04-25T03:54:03.611Z,13
2024-04-25T03:55:04.202Z,12
2024-04-25T03:57:03.560Z,12
2024-04-25T03:58:03.516Z,13
2024-04-25T03:59:03.706Z,13
2024-04-25T04:00:06.612Z,13
2024-04-25T04:02:03.512Z,13
2024-04-25T04:03:04.487Z,15
2024-04-25T04:04:03.774Z,15
2024-04-25T04:05:04.463Z,16
2024-04-25T04:06:03.841Z,13
2024-04-25T04:08:03.819Z,16
2024-04-25T04:09:03.860Z,14
2024-04-25T04:10:08.024Z,13
2024-04-25T04:12:04.858Z,13
2024-04-25T04:13:03.802Z,13
2024-04-25T04:14:04.001Z,13
2024-04-25T04:15:04.214Z,13
2024-04-25T04:16:03.809Z,14
2024-04-25T04:18:03.707Z,12
2024-04-25T04:19:03.580Z,12
2024-04-25T04:20:04.414Z,14
2024-04-25T04:22:02.996Z,12
2024-04-25T04:23:03.456Z,12
2024-04-25T04:24:03.317Z,13
2024-04-25T04:25:04.107Z,13
2024-04-25T04:27:03.481Z,13
2024-04-25T04:28:02.897Z,13
2024-04-25T04:29:03.143Z,16
2024-04-25T04:30:03.892Z,13
2024-04-25T04:32:03.385Z,13
2024-04-25T04:33:03.526Z,13
2024-04-25T04:34:03.911Z,13
2024-04-25T04:35:04.254Z,11
2024-04-25T04:37:03.226Z,12
2024-04-25T04:38:03.083Z,13
2024-04-25T04:39:03.285Z,13
2024-04-25T04:40:04.539Z,14
2024-04-25T04:42:02.973Z,13
2024-04-25T04:43:03.532Z,13
2024-04-25T04:44:03.405Z,13
2024-04-25T04:45:04.455Z,14
2024-04-25T04:47:03.675Z,13
2024-04-25T04:48:35.458Z,13
2024-04-25T04:50:04.516Z,13
2024-04-25T04:52:03.422Z,14
2024-04-25T04:53:03.525Z,15
2024-04-25T04:54:03.377Z,16
2024-04-25T04:55:04.433Z,15
2024-04-25T04:57:03.618Z,14
2024-04-25T04:58:03.502Z,14
2024-04-25T04:59:03.464Z,13
2024-04-25T05:00:04.582Z,16
2024-04-25T05:02:03.891Z,13
2024-04-25T05:03:03.850Z,13
2024-04-25T05:04:03.076Z,13
2024-04-25T05:05:04.376Z,15
2024-04-25T05:07:03.575Z,15
2024-04-25T05:08:03.625Z,16
2024-04-25T05:09:03.679Z,15
2024-04-25T05:10:04.209Z,13
2024-04-25T05:12:05.079Z,22
2024-04-25T05:14:03.559Z,15
2024-04-25T05:15:04.841Z,16
2024-04-25T05:17:03.645Z,15
2024-04-25T05:18:03.804Z,21
2024-04-25T05:19:03.782Z,18
2024-04-25T05:20:04.421Z,16
2024-04-25T05:21:03.732Z,16
2024-04-25T05:23:03.798Z,16
2024-04-25T05:24:03.746Z,16
2024-04-25T05:25:03.649Z,17
2024-04-25T05:27:03.094Z,17
2024-04-25T05:28:03.651Z,17
2024-04-25T05:30:03.686Z,17
2024-04-25T05:31:03.958Z,17
2024-04-25T05:33:03.863Z,17
2024-04-25T05:34:04.604Z,16
2024-04-25T05:35:05.989Z,18
2024-04-25T05:36:03.306Z,21
2024-04-25T05:37:03.777Z,18
2024-04-25T05:38:03.053Z,17
2024-04-25T05:39:03.836Z,16
2024-04-25T05:40:04.000Z,18
2024-04-25T05:41:03.748Z,17
2024-04-25T05:43:03.349Z,19
2024-04-25T05:44:03.866Z,16
2024-04-25T05:45:03.981Z,16
2024-04-25T05:47:03.716Z,16
2024-04-25T05:48:03.375Z,16
2024-04-25T05:49:03.604Z,18
2024-04-25T05:50:10.482Z,18
2024-04-25T05:52:03.319Z,16
2024-04-25T05:53:03.323Z,16
2024-04-25T05:54:03.736Z,18
2024-04-25T05:55:04.621Z,17
2024-04-25T05:57:03.370Z,18
2024-04-25T05:58:03.641Z,21
2024-04-25T05:59:03.387Z,18
2024-04-25T06:00:04.173Z,17
2024-04-25T06:01:03.836Z,18
2024-04-25T06:03:06.788Z,18
2024-04-25T06:05:04.661Z,22
2024-04-25T06:07:03.208Z,16
2024-04-25T06:08:03.163Z,17
2024-04-25T06:09:03.244Z,17
2024-04-25T06:10:04.538Z,16
2024-04-25T06:11:03.544Z,16
2024-04-25T06:12:04.194Z,16
2024-04-25T06:13:04.424Z,16
2024-04-25T06:15:04.468Z,15
2024-04-25T06:17:03.490Z,15
2024-04-25T06:18:04.473Z,14
2024-04-25T06:20:04.702Z,13
2024-04-25T06:22:03.602Z,13
2024-04-25T06:23:03.815Z,12
2024-04-25T06:24:03.830Z,12
2024-04-25T06:25:05.582Z,11
2024-04-25T06:27:03.547Z,10
2024-04-25T06:28:03.846Z,10
2024-04-25T06:29:03.982Z,8
2024-04-25T06:30:04.752Z,9
2024-04-25T06:32:03.611Z,11
2024-04-25T06:33:04.577Z,12
2024-04-25T06:34:03.703Z,9
2024-04-25T06:36:02.981Z,8
2024-04-25T06:38:03.395Z,7
2024-04-25T06:39:03.092Z,8
2024-04-25T06:40:04.286Z,9
2024-04-25T06:42:03.480Z,8
2024-04-25T06:43:03.509Z,7
2024-04-25T06:44:27.585Z,7
2024-04-25T06:46:03.870Z,7
2024-04-25T06:48:04.047Z,7
2024-04-25T06:49:04.170Z,7
2024-04-25T06:50:04.468Z,8
2024-04-25T06:52:03.416Z,9
2024-04-25T06:53:03.042Z,8
2024-04-25T06:54:03.026Z,7
2024-04-25T06:55:04.363Z,7
2024-04-25T06:57:03.190Z,8
2024-04-25T06:58:03.756Z,7
2024-04-25T06:59:03.198Z,7
2024-04-25T07:00:04.129Z,8
2024-04-25T07:01:03.882Z,8
2024-04-25T07:02:04.327Z,7
2024-04-25T07:03:03.269Z,8
2024-04-25T07:04:03.437Z,7
2024-04-25T07:05:03.795Z,11
2024-04-25T07:07:03.195Z,7
2024-04-25T07:08:03.222Z,6
2024-04-25T07:09:03.389Z,8
2024-04-25T07:10:04.426Z,7
2024-04-25T07:12:03.543Z,9
2024-04-25T07:13:03.791Z,7
2024-04-25T07:15:04.688Z,9
2024-04-25T07:17:03.810Z,8
2024-04-25T07:18:03.102Z,8
2024-04-25T07:19:03.167Z,8
2024-04-25T07:20:04.057Z,7
2024-04-25T07:21:03.649Z,9
2024-04-25T07:23:03.878Z,9
2024-04-25T07:24:05.101Z,9
2024-04-25T07:25:04.465Z,9
2024-04-25T07:27:03.755Z,9
2024-04-25T07:28:03.803Z,10
2024-04-25T07:29:03.881Z,10
2024-04-25T07:30:04.656Z,9
2024-04-25T07:32:03.852Z,9
2024-04-25T07:33:04.948Z,9
2024-04-25T07:34:03.682Z,9
2024-04-25T07:35:04.769Z,10
2024-04-25T07:37:03.012Z,12
2024-04-25T07:38:02.910Z,10
2024-04-25T07:39:04.269Z,9
2024-04-25T07:40:04.651Z,10
2024-04-25T07:42:03.588Z,9
2024-04-25T07:43:03.252Z,10
2024-04-25T07:44:04.765Z,10
2024-04-25T07:45:03.964Z,10
2024-04-25T07:47:03.040Z,9
2024-04-25T07:48:04.018Z,9
2024-04-25T07:49:04.390Z,7
2024-04-25T07:50:03.856Z,7
2024-04-25T07:52:02.970Z,9
2024-04-25T07:53:03.363Z,8
2024-04-25T07:54:03.351Z,8
2024-04-25T07:55:04.961Z,7
2024-04-25T07:57:03.798Z,8
2024-04-25T07:58:03.732Z,7
2024-04-25T07:59:03.709Z,8
2024-04-25T08:00:04.399Z,9
2024-04-25T08:02:03.999Z,7
2024-04-25T08:03:04.385Z,8
2024-04-25T08:04:03.942Z,9
2024-04-25T08:05:05.157Z,8
2024-04-25T08:07:03.107Z,8
2024-04-25T08:08:03.258Z,8
2024-04-25T08:09:03.603Z,9
2024-04-25T08:10:04.405Z,8
2024-04-25T08:12:03.701Z,10
2024-04-25T08:14:03.539Z,8
2024-04-25T08:15:04.218Z,8
2024-04-25T08:17:03.774Z,8
2024-04-25T08:19:03.152Z,8
2024-04-25T08:20:04.036Z,8
2024-04-25T08:22:03.808Z,8
2024-04-25T08:23:03.584Z,8
2024-04-25T08:25:03.687Z,8
2024-04-25T08:26:03.730Z,7
2024-04-25T08:27:03.827Z,7
2024-04-25T08:28:04.046Z,7
2024-04-25T08:30:03.922Z,7
2024-04-25T08:31:03.246Z,7
2024-04-25T08:32:03.809Z,6
2024-04-25T08:33:04.493Z,7
2024-04-25T08:34:04.815Z,8
2024-04-25T08:35:04.916Z,7
2024-04-25T08:37:03.991Z,8
2024-04-25T08:38:03.810Z,7
2024-04-25T08:39:03.693Z,8
2024-04-25T08:40:04.583Z,7
2024-04-25T08:42:03.943Z,7
2024-04-25T08:43:04.105Z,7
2024-04-25T08:44:03.513Z,8
2024-04-25T08:45:04.135Z,8
2024-04-25T08:46:03.397Z,8
2024-04-25T08:47:03.895Z,8
2024-04-25T08:48:04.237Z,7
2024-04-25T08:49:03.812Z,7
2024-04-25T08:50:05.013Z,8
2024-04-25T08:52:03.708Z,8
2024-04-25T08:53:03.012Z,7
2024-04-25T08:54:03.332Z,9
2024-04-25T08:55:03.986Z,6
2024-04-25T08:57:03.245Z,8
2024-04-25T08:58:03.161Z,7
2024-04-25T08:59:03.219Z,8
2024-04-25T09:00:04.229Z,6
2024-04-25T09:02:03.446Z,8
2024-04-25T09:03:03.803Z,8
2024-04-25T09:04:03.351Z,8
2024-04-25T09:05:04.140Z,8
2024-04-25T09:07:03.116Z,8
2024-04-25T09:08:03.085Z,8
2024-04-25T09:09:03.451Z,8
2024-04-25T09:10:04.382Z,8
2024-04-25T09:12:10.011Z,9
2024-04-25T09:13:02.948Z,10
2024-04-25T09:14:03.706Z,12
2024-04-25T09:15:04.254Z,10
2024-04-25T09:17:03.543Z,10
2024-04-25T09:18:04.818Z,8
2024-04-25T09:20:04.360Z,9
2024-04-25T09:21:03.769Z,7
2024-04-25T09:22:03.633Z,8
2024-04-25T09:23:07.619Z,7
2024-04-25T09:25:04.689Z,8
2024-04-25T09:27:03.941Z,8
2024-04-25T09:28:04.331Z,7
2024-04-25T09:29:03.692Z,9
2024-04-25T09:30:04.492Z,9
2024-04-25T09:32:03.937Z,8
2024-04-25T09:34:04.053Z,8
2024-04-25T09:35:12.380Z,7
2024-04-25T09:37:03.506Z,9
2024-04-25T09:38:03.858Z,9
2024-04-25T09:39:03.749Z,9
2024-04-25T09:40:07.815Z,7
2024-04-25T09:42:03.084Z,7
2024-04-25T09:43:03.299Z,8
2024-04-25T09:44:04.106Z,7
2024-04-25T09:45:03.936Z,11
2024-04-25T09:46:04.513Z,9
2024-04-25T09:47:04.274Z,8
2024-04-25T09:48:03.234Z,8
2024-04-25T09:49:03.742Z,9
2024-04-25T09:50:04.401Z,8
2024-04-25T09:52:03.836Z,7
2024-04-25T09:53:04.941Z,6
2024-04-25T09:55:04.612Z,7
2024-04-25T09:57:03.564Z,8
2024-04-25T09:58:03.209Z,6
2024-04-25T09:59:03.396Z,7
2024-04-25T10:00:04.899Z,7
2024-04-25T10:02:04.418Z,7
2024-04-25T10:03:04.223Z,7
2024-04-25T10:04:03.990Z,8
2024-04-25T10:06:03.396Z,7
2024-04-25T10:08:03.462Z,6
2024-04-25T10:09:03.505Z,5
2024-04-25T10:10:04.084Z,5
2024-04-25T10:12:03.777Z,6
2024-04-25T10:13:03.383Z,8
2024-04-25T10:15:04.191Z,8
2024-04-25T10:16:03.798Z,8
2024-04-25T10:17:05.006Z,7
2024-04-25T10:19:03.708Z,5
2024-04-25T10:20:03.876Z,6
2024-04-25T10:21:04.843Z,6
2024-04-25T10:23:03.097Z,7
2024-04-25T10:24:03.473Z,6
2024-04-25T10:25:04.009Z,6
2024-04-25T10:26:03.539Z,6
2024-04-25T10:27:03.577Z,7
2024-04-25T10:28:03.537Z,7
2024-04-25T10:29:06.469Z,7
2024-04-25T10:31:03.699Z,5
2024-04-25T10:32:04.094Z,7
2024-04-25T10:33:04.643Z,8
2024-04-25T10:34:10.466Z,7
2024-04-25T10:37:04.286Z,6
2024-04-25T10:38:04.029Z,6
2024-04-25T10:39:10.536Z,7
2024-04-25T10:41:03.020Z,6
2024-04-25T10:42:03.001Z,6
2024-04-25T10:43:06.705Z,5
2024-04-25T10:45:04.576Z,6
2024-04-25T10:47:02.971Z,7
2024-04-25T10:48:04.039Z,6
2024-04-25T10:49:05.479Z,6
2024-04-25T10:50:03.608Z,5
2024-04-25T10:52:03.107Z,6
2024-04-25T10:53:03.111Z,6
2024-04-25T10:54:04.126Z,6
2024-04-25T10:55:03.361Z,5
2024-04-25T10:56:03.955Z,6
2024-04-25T10:57:03.692Z,6
2024-04-25T10:58:03.724Z,6
2024-04-25T10:59:03.828Z,6
2024-04-25T11:00:05.352Z,6
2024-04-25T11:02:04.575Z,6
2024-04-25T11:03:03.753Z,6
2024-04-25T11:04:03.338Z,6
2024-04-25T11:05:03.950Z,6
2024-04-25T11:07:08.197Z,6
2024-04-25T11:09:03.308Z,6
2024-04-25T11:10:04.020Z,6
2024-04-25T11:11:04.068Z,6
2024-04-25T11:12:04.172Z,6
2024-04-25T11:13:03.699Z,6
2024-04-25T11:14:03.736Z,5
2024-04-25T11:15:03.933Z,7
2024-04-25T11:17:03.112Z,6
2024-04-25T11:18:30.027Z,6
2024-04-25T11:21:05.438Z,6
2024-04-25T11:22:03.866Z,5
2024-04-25T11:23:04.539Z,6
2024-04-25T11:24:04.298Z,5
2024-04-25T11:25:04.278Z,5
2024-04-25T11:27:03.739Z,6
2024-04-25T11:30:03.588Z,7
2024-04-25T11:31:04.416Z,6
2024-04-25T11:33:04.345Z,8
2024-04-25T11:34:03.632Z,5
2024-04-25T11:35:04.119Z,6
2024-04-25T11:36:03.661Z,8
2024-04-25T11:38:03.666Z,6
2024-04-25T11:39:03.251Z,6
2024-04-25T11:40:03.876Z,9
2024-04-25T11:41:03.938Z,7
2024-04-25T11:42:03.397Z,8
2024-04-25T11:43:03.717Z,8
2024-04-25T11:45:04.675Z,5
2024-04-25T11:47:02.388Z,6
2024-04-25T11:48:05.544Z,6
2024-04-25T11:50:04.342Z,8
2024-04-25T11:52:03.158Z,6
2024-04-25T11:53:03.083Z,7
2024-04-25T11:54:03.012Z,6
2024-04-25T11:55:05.561Z,7
2024-04-25T11:57:03.594Z,6
2024-04-25T11:58:03.442Z,6
2024-04-25T11:59:03.454Z,6
2024-04-25T12:00:04.138Z,6
2024-04-25T12:02:04.032Z,6
2024-04-25T12:03:04.027Z,5
2024-04-25T12:04:03.942Z,6
2024-04-25T12:05:04.994Z,5
2024-04-25T12:07:03.181Z,7
2024-04-25T12:08:03.601Z,6
2024-04-25T12:09:04.007Z,5
2024-04-25T12:10:03.676Z,7
2024-04-25T12:11:03.735Z,5
2024-04-25T12:12:04.314Z,6
2024-04-25T12:14:03.789Z,5
2024-04-25T12:15:04.562Z,5
2024-04-25T12:17:03.642Z,5
2024-04-25T12:18:04.574Z,6
2024-04-25T12:20:04.301Z,6
2024-04-25T12:22:03.370Z,7
2024-04-25T12:23:03.507Z,7
2024-04-25T12:24:03.777Z,7
2024-04-25T12:25:03.391Z,5
2024-04-25T12:26:03.565Z,6
2024-04-25T12:27:03.645Z,5
2024-04-25T12:28:03.583Z,6
2024-04-25T12:29:03.501Z,5
2024-04-25T12:30:03.939Z,6
2024-04-25T12:31:03.480Z,6
2024-04-25T12:33:03.906Z,7
2024-04-25T12:35:04.070Z,7
2024-04-25T12:36:04.002Z,6
2024-04-25T12:38:03.881Z,6
2024-04-25T12:39:03.820Z,5
2024-04-25T12:40:04.668Z,6
2024-04-25T12:42:04.107Z,7
2024-04-25T12:43:04.111Z,7
2024-04-25T12:44:03.595Z,7
2024-04-25T12:45:04.691Z,7
2024-04-25T12:47:04.238Z,7
2024-04-25T12:48:03.989Z,6
2024-04-25T12:49:04.355Z,11
2024-04-25T12:50:04.276Z,7
2024-04-25T12:52:03.550Z,7
2024-04-25T12:53:03.464Z,6
2024-04-25T12:54:03.647Z,7
2024-04-25T12:55:04.224Z,7
2024-04-25T12:57:03.350Z,7
2024-04-25T12:58:03.437Z,6
2024-04-25T12:59:03.443Z,6
2024-04-25T13:00:06.873Z,6
2024-04-25T13:02:03.321Z,7
2024-04-25T13:03:03.688Z,6
2024-04-25T13:04:03.661Z,5
2024-04-25T13:05:04.465Z,5
2024-04-25T13:07:03.334Z,5
2024-04-25T13:08:03.246Z,7
2024-04-25T13:09:03.527Z,7
2024-04-25T13:10:04.185Z,6
2024-04-25T13:12:03.577Z,7
2024-04-25T13:13:03.149Z,6
2024-04-25T13:14:02.882Z,6
2024-04-25T13:15:04.313Z,10
2024-04-25T13:17:04.331Z,6
2024-04-25T13:19:04.861Z,6
2024-04-25T13:20:04.830Z,6
2024-04-25T13:22:03.895Z,6
2024-04-25T13:23:03.768Z,6
2024-04-25T13:24:03.736Z,6
2024-04-25T13:25:04.599Z,5
2024-04-25T13:27:04.791Z,6
2024-04-25T13:29:03.770Z,5
2024-04-25T13:30:04.469Z,4
2024-04-25T13:32:03.947Z,6
2024-04-25T13:33:04.581Z,5
2024-04-25T13:34:03.984Z,5
2024-04-25T13:36:03.639Z,6
2024-04-25T13:38:03.695Z,6
2024-04-25T13:39:03.761Z,6
2024-04-25T13:40:04.937Z,5
2024-04-25T13:42:03.404Z,6
2024-04-25T13:43:03.513Z,6
2024-04-25T13:44:03.585Z,5
2024-04-25T13:45:04.394Z,5
2024-04-25T13:47:03.397Z,5
2024-04-25T13:48:04.111Z,3
2024-04-25T13:49:03.830Z,5
2024-04-25T13:50:04.346Z,6
2024-04-25T13:51:03.662Z,6
2024-04-25T13:53:03.565Z,5
2024-04-25T13:54:03.510Z,5
2024-04-25T13:55:04.630Z,5
2024-04-25T13:57:03.514Z,5
2024-04-25T13:58:03.346Z,5
2024-04-25T13:59:03.458Z,5
2024-04-25T14:00:06.692Z,6
2024-04-25T14:02:04.194Z,5
2024-04-25T14:03:03.142Z,5
2024-04-25T14:04:03.778Z,5
2024-04-25T14:05:04.746Z,5
2024-04-25T14:07:10.920Z,4
2024-04-25T14:09:03.339Z,5
2024-04-25T14:10:04.086Z,5
2024-04-25T14:12:04.172Z,6
2024-04-25T14:14:03.359Z,5
2024-04-25T14:15:04.403Z,5
2024-04-25T14:17:02.431Z,7
2024-04-25T14:18:03.943Z,5
2024-04-25T14:20:04.432Z,5
2024-04-25T14:21:03.494Z,5
2024-04-25T14:23:03.401Z,5
2024-04-25T14:24:03.231Z,5
2024-04-25T14:25:09.899Z,6
2024-04-25T14:27:03.410Z,7
2024-04-25T14:28:03.319Z,7
2024-04-25T14:29:03.253Z,6
2024-04-25T14:30:04.298Z,6
2024-04-25T14:32:03.277Z,6
2024-04-25T14:33:04.593Z,6
2024-04-25T14:34:05.272Z,5
2024-04-25T14:37:03.476Z,6
2024-04-25T14:38:03.646Z,6
2024-04-25T14:39:04.382Z,5
2024-04-25T14:41:10.361Z,6
2024-04-25T14:43:03.510Z,5
2024-04-25T14:44:11.732Z,6
2024-04-25T14:46:03.883Z,7
2024-04-25T14:47:09.813Z,6
2024-04-25T14:49:04.367Z,6
2024-04-25T14:50:04.480Z,6
2024-04-25T14:51:03.771Z,6
2024-04-25T14:52:03.812Z,6
2024-04-25T14:53:08.825Z,6
2024-04-25T14:55:04.828Z,6
2024-04-25T14:57:03.912Z,5
2024-04-25T14:58:03.651Z,5
2024-04-25T14:59:09.075Z,6
2024-04-25T15:02:04.215Z,5
2024-04-25T15:03:03.343Z,6
2024-04-25T15:04:03.881Z,5
2024-04-25T15:05:09.403Z,5
2024-04-25T15:07:03.368Z,5
2024-04-25T15:08:03.135Z,5
2024-04-25T15:09:03.247Z,5
2024-04-25T15:10:04.088Z,7
2024-04-25T15:11:03.259Z,6
2024-04-25T15:12:04.280Z,5
2024-04-25T15:13:03.219Z,5
2024-04-25T15:14:03.435Z,5
2024-04-25T15:15:22.297Z,5
2024-04-25T15:17:03.717Z,5
2024-04-25T15:18:03.857Z,5
2024-04-25T15:20:04.450Z,5
2024-04-25T15:22:03.080Z,5
2024-04-25T15:23:02.948Z,5
2024-04-25T15:24:03.523Z,5
2024-04-25T15:25:04.112Z,4
2024-04-25T15:27:03.353Z,6
2024-04-25T15:28:03.589Z,6
2024-04-25T15:29:10.500Z,6
2024-04-25T15:32:03.607Z,5
2024-04-25T15:33:04.551Z,6
2024-04-25T15:34:04.415Z,6
2024-04-25T15:35:10.750Z,14
2024-04-25T15:37:03.845Z,6
2024-04-25T15:38:03.211Z,5
2024-04-25T15:39:03.863Z,6
2024-04-25T15:40:04.242Z,5
2024-04-25T15:42:03.746Z,5
2024-04-25T15:43:03.506Z,5
2024-04-25T15:44:03.881Z,6
2024-04-25T15:45:04.581Z,5
2024-04-25T15:47:03.710Z,7
2024-04-25T15:48:04.931Z,6
2024-04-25T15:49:04.471Z,6
2024-04-25T15:50:04.701Z,5
2024-04-25T15:52:03.938Z,5
2024-04-25T15:53:10.279Z,5
2024-04-25T15:54:03.226Z,7
2024-04-25T15:55:04.640Z,6
2024-04-25T15:56:03.877Z,5
2024-04-25T15:58:03.842Z,6
2024-04-25T15:59:03.839Z,5
2024-04-25T16:00:04.530Z,5
2024-04-25T16:02:03.168Z,5
2024-04-25T16:03:04.184Z,6
2024-04-25T16:05:03.908Z,5
2024-04-25T16:07:03.278Z,6
2024-04-25T16:08:03.103Z,6
2024-04-25T16:09:03.596Z,6
2024-04-25T16:10:04.348Z,5
2024-04-25T16:12:03.804Z,6
2024-04-25T16:14:03.187Z,5
2024-04-25T16:15:04.523Z,6
2024-04-25T16:17:03.521Z,6
2024-04-25T16:18:03.584Z,5
2024-04-25T16:19:03.669Z,6
2024-04-25T16:20:04.220Z,8
2024-04-25T16:22:03.227Z,6
2024-04-25T16:23:03.354Z,6
2024-04-25T16:24:03.159Z,6
2024-04-25T16:25:04.201Z,6
2024-04-25T16:27:08.337Z,6
2024-04-25T16:29:03.370Z,5
2024-04-25T16:30:04.604Z,6
2024-04-25T16:32:03.632Z,5
2024-04-25T16:33:03.904Z,6
2024-04-25T16:34:04.317Z,6
2024-04-25T16:35:04.619Z,5
2024-04-25T16:38:03.519Z,6
2024-04-25T16:39:03.430Z,5
2024-04-25T16:40:04.367Z,5
2024-04-25T16:41:03.664Z,6
2024-04-25T16:42:04.306Z,5
2024-04-25T16:43:03.552Z,5
2024-04-25T16:44:04.079Z,5
2024-04-25T16:45:04.519Z,5
2024-04-25T16:47:04.255Z,6
2024-04-25T16:48:04.545Z,6
2024-04-25T16:49:03.919Z,6
2024-04-25T16:50:04.624Z,9
2024-04-25T16:51:04.103Z,7
2024-04-25T16:52:04.545Z,6
2024-04-25T16:54:03.994Z,6
2024-04-25T16:55:05.039Z,6
2024-04-25T16:57:03.993Z,5
2024-04-25T16:58:03.989Z,6
2024-04-25T16:59:03.956Z,5
2024-04-25T17:00:04.154Z,6
2024-04-25T17:01:05.433Z,5
2024-04-25T17:03:03.639Z,5
2024-04-25T17:04:03.517Z,5
2024-04-25T17:05:03.903Z,5
2024-04-25T17:07:03.278Z,5
2024-04-25T17:08:03.374Z,5
2024-04-25T17:09:03.154Z,4
2024-04-25T17:10:04.133Z,7
2024-04-25T17:12:03.759Z,6
2024-04-25T17:13:03.259Z,5
2024-04-25T17:14:03.264Z,5
2024-04-25T17:15:04.113Z,4
2024-04-25T17:17:04.324Z,5
2024-04-25T17:18:03.509Z,5
2024-04-25T17:20:04.257Z,7
2024-04-25T17:22:03.366Z,6
2024-04-25T17:23:03.313Z,5
2024-04-25T17:24:03.348Z,4
2024-04-25T17:25:04.140Z,5
2024-04-25T17:27:03.449Z,6
2024-04-25T17:28:03.384Z,6
2024-04-25T17:29:03.586Z,6
2024-04-25T17:30:05.158Z,6
2024-04-25T17:32:03.747Z,6
2024-04-25T17:33:04.376Z,5
2024-04-25T17:34:05.211Z,5
2024-04-25T17:35:07.522Z,5
2024-04-25T17:37:03.980Z,5
2024-04-25T17:38:04.202Z,5
2024-04-25T17:39:03.846Z,5
2024-04-25T17:40:04.860Z,6
2024-04-25T17:42:03.272Z,5
2024-04-25T17:44:03.092Z,6
2024-04-25T17:45:03.918Z,5
2024-04-25T17:47:03.118Z,4
2024-04-25T17:48:04.064Z,6
2024-04-25T17:49:04.930Z,6
2024-04-25T17:52:03.307Z,4
2024-04-25T17:53:03.278Z,6
2024-04-25T17:54:03.204Z,7
2024-04-25T17:55:04.109Z,5
2024-04-25T17:57:03.449Z,5
2024-04-25T17:58:03.303Z,5
2024-04-25T17:59:03.429Z,6
2024-04-25T18:00:05.183Z,5
2024-04-25T18:01:04.644Z,7
2024-04-25T18:03:03.360Z,6
2024-04-25T18:04:03.059Z,6
2024-04-25T18:05:04.136Z,6
2024-04-25T18:06:03.311Z,7
2024-04-25T18:07:03.366Z,6
2024-04-25T18:08:03.622Z,5
2024-04-25T18:09:03.341Z,5
2024-04-25T18:10:04.690Z,5
2024-04-25T18:12:03.757Z,5
2024-04-25T18:13:03.678Z,6
2024-04-25T18:14:03.789Z,6
2024-04-25T18:15:04.249Z,6
2024-04-25T18:17:04.154Z,4
2024-04-25T18:18:04.136Z,4
2024-04-25T18:19:04.151Z,4
2024-04-25T18:20:04.235Z,5
2024-04-25T18:21:03.689Z,7
2024-04-25T18:22:04.904Z,6
2024-04-25T18:24:03.780Z,6
2024-04-25T18:25:04.290Z,6
2024-04-25T18:27:03.946Z,6
2024-04-25T18:28:03.502Z,6
2024-04-25T18:29:03.623Z,6
2024-04-25T18:30:04.589Z,77
2024-04-25T18:31:03.512Z,16
2024-04-25T18:32:03.883Z,7
2024-04-25T18:33:04.216Z,5
2024-04-25T18:34:03.653Z,5
2024-04-25T18:35:04.294Z,10
2024-04-25T18:36:03.485Z,6
2024-04-25T18:37:03.686Z,6
2024-04-25T18:38:04.810Z,5
2024-04-25T18:40:04.305Z,5
2024-04-25T18:42:10.590Z,5
2024-04-25T18:44:03.565Z,5
2024-04-25T18:45:04.527Z,5
2024-04-25T18:46:03.626Z,7
2024-04-25T18:47:03.834Z,5
2024-04-25T18:48:04.766Z,5
2024-04-25T18:49:04.768Z,5
2024-04-25T18:50:04.867Z,4
2024-04-25T18:52:04.027Z,5
2024-04-25T18:53:03.728Z,5
2024-04-25T18:54:04.101Z,5
2024-04-25T18:55:04.571Z,6
2024-04-25T18:56:04.118Z,6
2024-04-25T18:58:03.835Z,5
2024-04-25T18:59:03.802Z,6
2024-04-25T19:00:04.751Z,5
2024-04-25T19:01:03.840Z,4
2024-04-25T19:02:04.019Z,4
2024-04-25T19:03:04.158Z,5
2024-04-25T19:04:04.921Z,5